Time;durP1;ratioP1;P1;durP2;ratioP2;P2;SDS_P1;SDS_P2;PMS_P1;PMS_P2;Temp;Humidity;BMP_temperature;BMP_pressure;BME280_temperature;BME280_humidity;BME280_pressure;Samples;Min_cycle;Max_cycle;Signal;HPM_P1;HPM_P2
2023/09/14 00:01:46;;;;;;;0.40;0.30;;;16.90;99.90;;;;;;5056911;28;20204;-83
2023/09/14 00:04:12;;;;;;;0.40;0.20;;;16.90;99.90;;;;;;5060409;28;21636;-84
2023/09/14 00:06:37;;;;;;;0.40;0.20;;;16.80;99.90;;;;;;5051983;28;20200;-83
2023/09/14 00:09:03;;;;;;;0.40;0.20;;;17.00;99.90;;;;;;5057689;28;21216;-84
2023/09/14 00:11:28;;;;;;;0.40;0.20;;;16.70;99.90;;;;;;5059921;28;20697;-85
2023/09/14 00:13:54;;;;;;;0.40;0.20;;;16.70;99.90;;;;;;5062819;28;20323;-86
2023/09/14 00:16:19;;;;;;;2.10;0.57;;;16.70;99.90;;;;;;5066494;28;20192;-85
2023/09/14 00:18:45;;;;;;;0.40;0.30;;;16.60;99.90;;;;;;5061914;28;20200;-83
2023/09/14 00:21:11;;;;;;;0.40;0.20;;;16.50;99.90;;;;;;5060388;28;20865;-87
2023/09/14 00:23:36;;;;;;;2.10;1.13;;;16.50;99.90;;;;;;5061786;28;20211;-85
2023/09/14 00:26:02;;;;;;;0.40;0.20;;;16.40;99.90;;;;;;5057616;28;20176;-83
2023/09/14 00:28:28;;;;;;;0.40;0.20;;;16.30;99.90;;;;;;5061408;28;20275;-85
2023/09/14 00:30:53;;;;;;;0.40;0.20;;;16.40;99.90;;;;;;5059463;28;20582;-87
2023/09/14 00:33:21;;;;;;;0.40;0.20;;;16.40;99.90;;;;;;5060609;28;20688;-84
2023/09/14 00:35:47;;;;;;;0.40;0.30;;;16.30;99.90;;;;;;5056164;28;20203;-83
2023/09/14 00:38:13;;;;;;;0.40;0.20;;;16.70;99.90;;;;;;5061387;28;20447;-84
2023/09/14 00:40:38;;;;;;;0.40;0.20;;;16.50;99.90;;;;;;5071788;28;20204;-82
2023/09/14 00:43:04;;;;;;;0.50;0.40;;;16.50;99.90;;;;;;5066363;28;20265;-86
2023/09/14 00:45:31;;;;;;;0.40;0.20;;;16.60;99.90;;;;;;5064056;28;20479;-87
2023/09/14 00:47:59;;;;;;;0.40;0.20;;;16.70;99.90;;;;;;5061024;28;20219;-81
2023/09/14 00:50:26;;;;;;;0.40;0.20;;;16.80;99.90;;;;;;5060290;28;20458;-84
2023/09/14 00:52:58;;;;;;;0.40;0.20;;;16.70;99.90;;;;;;5072520;28;20439;-83
2023/09/14 00:55:25;;;;;;;0.40;0.30;;;16.80;99.90;;;;;;5058565;28;20457;-86
2023/09/14 00:57:52;;;;;;;0.40;0.20;;;16.80;99.90;;;;;;5060124;28;20446;-85
2023/09/14 01:00:18;;;;;;;0.40;0.20;;;16.80;99.90;;;;;;5075197;28;20482;-85
2023/09/14 01:02:44;;;;;;;0.40;0.20;;;16.70;99.90;;;;;;5078062;28;20482;-85
2023/09/14 01:05:11;;;;;;;0.40;0.30;;;16.70;99.90;;;;;;5065407;28;20439;-86
2023/09/14 01:07:37;;;;;;;0.40;0.20;;;16.70;99.90;;;;;;5060402;28;20441;-84
2023/09/14 01:10:04;;;;;;;0.40;0.20;;;16.70;99.90;;;;;;5061801;28;21029;-85
2023/09/14 01:12:30;;;;;;;0.40;0.30;;;16.70;99.90;;;;;;5063084;28;20542;-85
2023/09/14 01:15:05;;;;;;;0.40;0.23;;;16.70;99.90;;;;;;5052637;28;20450;-83
2023/09/14 01:17:53;;;;;;;0.40;0.20;;;16.70;99.90;;;;;;5054700;28;20465;-84
2023/09/14 01:20:56;;;;;;;0.40;0.20;;;16.70;99.90;;;;;;5070728;28;20517;-82
2023/09/14 01:23:31;;;;;;;0.50;0.40;;;16.70;99.90;;;;;;5052366;28;21117;-83
2023/09/14 01:25:58;;;;;;;0.40;0.23;;;16.60;99.90;;;;;;5058977;28;20552;-81
2023/09/14 01:28:24;;;;;;;0.40;0.20;;;16.70;99.90;;;;;;5054565;28;20493;-82
2023/09/14 01:30:49;;;;;;;0.40;0.20;;;16.80;99.90;;;;;;5059061;28;20494;-86
2023/09/14 01:33:16;;;;;;;0.40;0.20;;;16.80;99.90;;;;;;5058033;28;20188;-85
2023/09/14 01:35:45;;;;;;;0.40;0.23;;;16.80;99.90;;;;;;5056341;28;20661;-85
2023/09/14 01:38:12;;;;;;;0.40;0.20;;;16.80;99.90;;;;;;5061439;28;20446;-85
2023/09/14 01:40:38;;;;;;;0.70;0.60;;;16.80;99.90;;;;;;5057927;28;20469;-86
2023/09/14 01:43:05;;;;;;;0.40;0.20;;;16.80;99.90;;;;;;5064661;28;20463;-86
2023/09/14 01:45:33;;;;;;;0.40;0.20;;;17.20;99.90;;;;;;5072229;28;20438;-83
2023/09/14 01:48:00;;;;;;;0.40;0.20;;;16.70;99.90;;;;;;5066332;28;20518;-80
2023/09/14 01:50:25;;;;;;;0.40;0.20;;;16.70;99.90;;;;;;5056997;28;20555;-81
2023/09/14 01:52:52;;;;;;;0.40;0.20;;;16.60;99.90;;;;;;5079352;28;20444;-82
2023/09/14 01:55:18;;;;;;;0.40;0.20;;;16.50;99.90;;;;;;5056110;28;21713;-80
2023/09/14 01:57:45;;;;;;;0.40;0.30;;;16.40;99.90;;;;;;5062332;28;20466;-80
2023/09/14 02:00:10;;;;;;;0.40;0.20;;;16.30;99.90;;;;;;5069520;28;20565;-82
2023/09/14 02:02:36;;;;;;;0.40;0.20;;;16.10;99.90;;;;;;5057562;28;20550;-84
2023/09/14 02:05:02;;;;;;;0.40;0.20;;;15.90;99.90;;;;;;5064760;28;20199;-85
2023/09/14 02:07:28;;;;;;;0.40;0.30;;;15.90;99.90;;;;;;5054113;28;20964;-78
2023/09/14 02:09:53;;;;;;;0.40;0.20;;;15.80;99.90;;;;;;5048975;28;20438;-79
2023/09/14 02:12:20;;;;;;;0.40;0.30;;;15.60;99.90;;;;;;5058019;28;20184;-84
2023/09/14 02:14:46;;;;;;;0.40;0.20;;;15.50;99.90;;;;;;5057119;28;20180;-80
2023/09/14 02:17:11;;;;;;;0.40;0.20;;;15.40;99.90;;;;;;5060882;28;20441;-81
2023/09/14 02:19:37;;;;;;;0.40;0.20;;;15.40;99.90;;;;;;5060753;28;20274;-85
2023/09/14 02:22:03;;;;;;;0.40;0.20;;;15.40;99.90;;;;;;5053622;28;20216;-85
2023/09/14 02:24:28;;;;;;;0.40;0.20;;;15.30;99.90;;;;;;5066089;28;20204;-79
2023/09/14 02:26:54;;;;;;;0.40;0.30;;;15.20;99.90;;;;;;5057197;28;20474;-81
2023/09/14 02:29:20;;;;;;;0.40;0.20;;;15.20;99.90;;;;;;5054870;28;20244;-81
2023/09/14 02:31:46;;;;;;;0.40;0.20;;;15.20;99.90;;;;;;5051374;28;20200;-84
2023/09/14 02:34:12;;;;;;;0.40;0.20;;;15.20;99.90;;;;;;5048726;28;20443;-83
2023/09/14 02:36:39;;;;;;;0.40;0.20;;;15.00;99.90;;;;;;5051575;28;20187;-84
2023/09/14 02:39:04;;;;;;;0.40;0.27;;;15.00;99.90;;;;;;5054841;28;20450;-82
2023/09/14 02:41:30;;;;;;;0.40;0.30;;;14.90;99.90;;;;;;5048290;28;20679;-78
2023/09/14 02:43:56;;;;;;;0.40;0.30;;;14.80;99.90;;;;;;5071266;28;20470;-79
2023/09/14 02:46:21;;;;;;;0.40;0.20;;;14.80;99.90;;;;;;5052397;28;21356;-81
2023/09/14 02:48:47;;;;;;;2.53;0.73;;;14.60;99.90;;;;;;5048139;28;20189;-83
2023/09/14 02:51:12;;;;;;;0.40;0.30;;;14.50;99.90;;;;;;5051666;28;20257;-81
2023/09/14 02:53:38;;;;;;;0.40;0.30;;;14.40;99.90;;;;;;5054075;28;20884;-86
2023/09/14 02:56:10;;;;;;;0.40;0.30;;;14.30;99.90;;;;;;5054877;28;21644;-81
2023/09/14 02:58:37;;;;;;;0.40;0.30;;;14.20;99.90;;;;;;5059677;28;20273;-85
2023/09/14 03:01:08;;;;;;;0.40;0.20;;;14.20;99.90;;;;;;5062313;28;20458;-85
2023/09/14 03:03:37;;;;;;;0.40;0.40;;;14.30;99.90;;;;;;5076442;28;20490;-83
2023/09/14 03:06:03;;;;;;;0.40;0.20;;;14.20;99.90;;;;;;5077338;28;20474;-83
2023/09/14 03:08:29;;;;;;;0.40;0.20;;;14.20;99.90;;;;;;5067485;28;20511;-82
2023/09/14 03:10:56;;;;;;;0.40;0.40;;;14.20;99.90;;;;;;5063815;28;20454;-81
2023/09/14 03:13:22;;;;;;;0.40;0.20;;;14.20;99.90;;;;;;5059445;28;20439;-82
2023/09/14 03:15:58;;;;;;;0.40;0.20;;;14.10;99.90;;;;;;5059425;28;20529;-79
2023/09/14 03:18:25;;;;;;;0.40;0.30;;;14.10;99.90;;;;;;5065748;28;20180;-85
2023/09/14 03:20:52;;;;;;;0.40;0.20;;;14.30;99.90;;;;;;5051072;28;20557;-84
2023/09/14 03:23:18;;;;;;;0.40;0.20;;;13.80;99.90;;;;;;5053780;28;20513;-80
2023/09/14 03:25:44;;;;;;;0.40;0.20;;;13.90;99.90;;;;;;5057819;28;21460;-78
2023/09/14 03:28:10;;;;;;;0.40;0.20;;;13.90;99.90;;;;;;5054911;28;20184;-80
2023/09/14 03:30:36;;;;;;;0.40;0.20;;;13.90;99.90;;;;;;5062696;28;20454;-81
2023/09/14 03:33:02;;;;;;;0.40;0.20;;;13.90;99.90;;;;;;5058978;28;20675;-80
2023/09/14 03:35:28;;;;;;;0.40;0.20;;;13.90;99.90;;;;;;5074285;28;20188;-79
2023/09/14 03:37:53;;;;;;;0.40;0.23;;;13.90;99.90;;;;;;5055776;28;20191;-83
2023/09/14 03:40:19;;;;;;;0.40;0.20;;;13.80;99.90;;;;;;5061141;28;20207;-80
2023/09/14 03:42:44;;;;;;;0.40;0.30;;;13.90;99.90;;;;;;5060003;28;20612;-82
2023/09/14 03:45:10;;;;;;;0.40;0.20;;;13.90;99.90;;;;;;5054846;28;20189;-80
2023/09/14 03:47:36;;;;;;;0.40;0.20;;;13.80;99.90;;;;;;5054631;28;20189;-81
2023/09/14 03:50:01;;;;;;;0.40;0.20;;;14.20;99.90;;;;;;5054713;28;20768;-83
2023/09/14 03:52:27;;;;;;;0.40;0.20;;;13.70;99.90;;;;;;5058762;28;20261;-81
2023/09/14 03:54:52;;;;;;;0.40;0.20;;;13.60;99.90;;;;;;5055629;28;20626;-79
2023/09/14 03:57:18;;;;;;;0.40;0.20;;;13.50;99.90;;;;;;5056875;28;20184;-79
2023/09/14 03:59:45;;;;;;;0.40;0.20;;;13.40;99.90;;;;;;5058425;28;20184;-80
2023/09/14 04:02:10;;;;;;;0.40;0.20;;;13.40;99.90;;;;;;5055828;28;20291;-84
2023/09/14 04:04:42;;;;;;;0.40;0.20;;;13.40;99.90;;;;;;5064111;28;20513;-82
2023/09/14 04:07:08;;;;;;;0.40;0.20;;;13.40;99.90;;;;;;5050344;28;20442;-82
2023/09/14 04:09:34;;;;;;;0.40;0.20;;;13.30;99.90;;;;;;5058100;28;20454;-84
2023/09/14 04:11:59;;;;;;;0.40;0.20;;;13.20;99.90;;;;;;5063855;28;20465;-75
2023/09/14 04:14:25;;;;;;;1.90;1.80;;;13.20;99.90;;;;;;5060704;28;20203;-76
2023/09/14 04:16:51;;;;;;;0.40;0.20;;;13.30;99.90;;;;;;5072876;28;20172;-76
2023/09/14 04:19:17;;;;;;;0.40;0.20;;;13.20;99.90;;;;;;5053896;28;20237;-84
2023/09/14 04:21:43;;;;;;;0.40;0.20;;;13.20;99.90;;;;;;5058393;28;20470;-84
2023/09/14 04:24:09;;;;;;;0.40;0.23;;;13.20;99.90;;;;;;5052269;28;20466;-80
2023/09/14 04:26:35;;;;;;;0.40;0.30;;;13.10;99.90;;;;;;5058299;28;20300;-82
2023/09/14 04:29:00;;;;;;;0.40;0.20;;;13.00;99.90;;;;;;5077982;28;20442;-82
2023/09/14 04:31:26;;;;;;;0.40;0.30;;;13.00;99.90;;;;;;5071076;28;20450;-76
2023/09/14 04:33:51;;;;;;;0.40;0.20;;;13.00;99.90;;;;;;5059717;28;20189;-82
2023/09/14 04:36:17;;;;;;;0.40;0.20;;;13.10;99.90;;;;;;5059680;28;20180;-79
2023/09/14 04:38:43;;;;;;;0.40;0.30;;;13.20;99.90;;;;;;5057183;28;21738;-83
2023/09/14 04:41:09;;;;;;;0.40;0.20;;;12.90;99.90;;;;;;5060349;28;20256;-78
2023/09/14 04:43:34;;;;;;;0.40;0.30;;;13.00;99.90;;;;;;5048318;28;20216;-80
2023/09/14 04:46:06;;;;;;;0.40;0.20;;;12.90;99.90;;;;;;5061180;28;20544;-80
2023/09/14 04:48:32;;;;;;;0.40;0.20;;;13.00;99.90;;;;;;5065846;28;20185;-80
2023/09/14 04:50:58;;;;;;;0.40;0.30;;;13.00;99.90;;;;;;5066954;28;20855;-79
2023/09/14 04:53:28;;;;;;;0.40;0.20;;;13.00;99.90;;;;;;5055285;28;20253;-82
2023/09/14 04:55:54;;;;;;;0.40;0.20;;;12.90;99.90;;;;;;5060072;28;20541;-79
2023/09/14 04:58:20;;;;;;;0.40;0.20;;;13.10;99.90;;;;;;5061722;28;20893;-81
2023/09/14 05:00:49;;;;;;;0.40;0.20;;;13.20;99.90;;;;;;5053607;28;20208;-83
2023/09/14 05:03:15;;;;;;;0.40;0.20;;;13.30;99.90;;;;;;5053404;28;20208;-77
2023/09/14 05:05:41;;;;;;;0.40;0.20;;;13.30;99.90;;;;;;5060069;28;20564;-77
2023/09/14 05:08:08;;;;;;;0.40;0.20;;;13.50;99.90;;;;;;5056148;28;20561;-82
2023/09/14 05:10:34;;;;;;;0.40;0.20;;;13.60;99.90;;;;;;5062599;28;20999;-82
2023/09/14 05:12:59;;;;;;;0.40;0.20;;;13.70;99.90;;;;;;5067094;28;20434;-83
2023/09/14 05:15:25;;;;;;;0.40;0.20;;;13.70;99.90;;;;;;5055859;28;20312;-81
2023/09/14 05:17:50;;;;;;;0.40;0.20;;;13.90;99.90;;;;;;5062332;28;20220;-76
2023/09/14 05:20:17;;;;;;;0.40;0.20;;;13.90;99.90;;;;;;5074182;28;20223;-82
2023/09/14 05:22:43;;;;;;;0.40;0.20;;;14.00;99.90;;;;;;5066996;28;20245;-79
2023/09/14 05:25:09;;;;;;;0.40;0.20;;;14.20;99.90;;;;;;5070291;28;20442;-76
2023/09/14 05:27:39;;;;;;;0.40;0.20;;;15.70;99.90;;;;;;5075840;28;20191;-79
2023/09/14 05:30:09;;;;;;;0.40;0.20;;;14.40;99.90;;;;;;5065944;28;21016;-83
2023/09/14 05:32:35;;;;;;;0.40;0.20;;;14.40;99.90;;;;;;5066444;28;20449;-83
2023/09/14 05:35:01;;;;;;;0.40;0.20;;;14.50;99.90;;;;;;5065559;28;20567;-81
2023/09/14 05:37:27;;;;;;;0.40;0.20;;;14.60;99.90;;;;;;5059455;28;20443;-82
2023/09/14 05:39:53;;;;;;;0.40;0.30;;;14.70;99.90;;;;;;5065271;28;20446;-77
2023/09/14 05:42:19;;;;;;;0.40;0.20;;;15.00;99.90;;;;;;5066422;28;20194;-83
2023/09/14 05:44:44;;;;;;;0.40;0.20;;;15.00;99.90;;;;;;5066269;28;20927;-79
2023/09/14 05:47:10;;;;;;;0.40;0.20;;;15.00;99.90;;;;;;5060863;28;20188;-80
2023/09/14 05:49:35;;;;;;;0.40;0.30;;;15.10;99.90;;;;;;5063008;28;20247;-82
2023/09/14 05:52:01;;;;;;;0.40;0.20;;;15.30;99.90;;;;;;5062075;28;20216;-83
2023/09/14 05:54:26;;;;;;;0.40;0.20;;;15.50;99.90;;;;;;5062022;28;20195;-80
2023/09/14 05:56:52;;;;;;;0.40;0.20;;;15.50;99.90;;;;;;5061467;28;20219;-82
2023/09/14 05:59:18;;;;;;;0.40;0.20;;;15.50;99.90;;;;;;5061882;28;20224;-81
2023/09/14 06:01:43;;;;;;;0.40;0.20;;;15.80;99.90;;;;;;5065136;28;20212;-86
2023/09/14 06:04:09;;;;;;;0.40;0.30;;;15.70;99.90;;;;;;5061318;28;20286;-82
2023/09/14 06:06:34;;;;;;;0.40;0.20;;;15.90;99.90;;;;;;5061075;28;20403;-84
2023/09/14 06:09:00;;;;;;;0.40;0.20;;;16.00;99.90;;;;;;5060888;28;20211;-81
2023/09/14 06:11:27;;;;;;;0.40;0.20;;;16.00;99.90;;;;;;5057817;28;20208;-83
2023/09/14 06:13:53;;;;;;;0.40;0.30;;;16.10;99.90;;;;;;5066663;28;20185;-80
2023/09/14 06:16:19;;;;;;;0.40;0.30;;;17.40;99.90;;;;;;5062990;28;21213;-80
2023/09/14 06:18:44;;;;;;;0.40;0.20;;;16.30;99.90;;;;;;5076330;28;20442;-81
2023/09/14 06:21:10;;;;;;;0.40;0.20;;;16.50;99.90;;;;;;5079613;28;20221;-81
2023/09/14 06:23:35;;;;;;;0.40;0.20;;;16.70;99.90;;;;;;5069128;28;20208;-83
2023/09/14 06:26:01;;;;;;;0.40;0.23;;;17.00;99.90;;;;;;5076473;28;20223;-78
2023/09/14 06:28:28;;;;;;;0.40;0.30;;;17.30;99.90;;;;;;5064907;28;20200;-82
2023/09/14 06:30:55;;;;;;;0.40;0.20;;;17.30;99.90;;;;;;5066023;28;20467;-82
2023/09/14 06:33:21;;;;;;;0.40;0.20;;;17.30;99.90;;;;;;5066782;28;20185;-80
2023/09/14 06:35:46;;;;;;;0.40;0.30;;;17.40;99.90;;;;;;5068823;28;20525;-83
2023/09/14 06:38:12;;;;;;;0.40;0.20;;;17.50;99.90;;;;;;5065238;28;20256;-81
2023/09/14 06:40:37;;;;;;;0.40;0.30;;;17.50;99.90;;;;;;5066944;28;20263;-76
2023/09/14 06:43:04;;;;;;;0.40;0.20;;;17.50;99.90;;;;;;5077923;28;20226;-83
2023/09/14 06:45:30;;;;;;;0.40;0.20;;;17.70;99.90;;;;;;5074225;28;20219;-82
2023/09/14 06:47:55;;;;;;;0.40;0.20;;;17.60;99.90;;;;;;5070417;28;20916;-80
2023/09/14 06:50:21;;;;;;;0.40;0.40;;;17.80;99.90;;;;;;5064455;28;20211;-81
2023/09/14 06:52:46;;;;;;;0.40;0.20;;;17.90;99.90;;;;;;5072589;28;20192;-81
2023/09/14 06:55:12;;;;;;;0.40;0.20;;;17.90;99.90;;;;;;5068268;28;20210;-82
2023/09/14 06:57:37;;;;;;;0.40;0.30;;;18.20;99.90;;;;;;5061797;28;20222;-80
2023/09/14 07:00:08;;;;;;;0.40;0.20;;;18.40;99.90;;;;;;5064071;28;20184;-85
2023/09/14 07:02:33;;;;;;;0.40;0.20;;;18.40;99.90;;;;;;5071973;28;20618;-80
2023/09/14 07:04:59;;;;;;;0.40;0.20;;;18.60;99.90;;;;;;5069331;28;20439;-80
2023/09/14 07:07:25;;;;;;;0.40;0.30;;;18.70;99.90;;;;;;5066471;28;20367;-81
2023/09/14 07:09:50;;;;;;;0.40;0.20;;;18.60;99.90;;;;;;5065268;28;20871;-84
2023/09/14 07:12:16;;;;;;;0.40;0.20;;;18.80;99.90;;;;;;5063399;28;20196;-79
2023/09/14 07:14:41;;;;;;;0.50;0.50;;;19.20;99.90;;;;;;5068940;28;20207;-85
2023/09/14 07:17:07;;;;;;;0.40;0.20;;;19.30;99.90;;;;;;5062305;28;20195;-83
2023/09/14 07:19:32;;;;;;;0.40;0.20;;;19.50;99.90;;;;;;5059527;28;20591;-83
2023/09/14 07:21:58;;;;;;;0.40;0.30;;;19.80;99.90;;;;;;5082608;28;20211;-80
2023/09/14 07:24:23;;;;;;;0.40;0.30;;;20.00;99.90;;;;;;5076110;28;20212;-80
2023/09/14 07:26:49;;;;;;;0.40;0.20;;;20.10;99.90;;;;;;5065055;28;20296;-81
2023/09/14 07:29:15;;;;;;;0.40;0.20;;;20.10;99.90;;;;;;5065217;28;20206;-80
2023/09/14 07:31:41;;;;;;;0.40;0.30;;;20.20;99.90;;;;;;5058489;28;20291;-77
2023/09/14 07:34:07;;;;;;;0.40;0.20;;;20.30;99.90;;;;;;5076308;28;20458;-79
2023/09/14 07:36:33;;;;;;;0.40;0.30;;;20.40;99.90;;;;;;5065670;28;20445;-80
2023/09/14 07:38:59;;;;;;;0.40;0.20;;;20.70;99.90;;;;;;5069781;28;20192;-82
2023/09/14 07:41:26;;;;;;;0.40;0.20;;;20.20;99.90;;;;;;5069392;28;20184;-78
2023/09/14 07:43:52;;;;;;;0.40;0.30;;;19.90;99.90;;;;;;5069690;28;20850;-80
2023/09/14 07:46:17;;;;;;;0.40;0.27;;;20.40;99.90;;;;;;5062858;28;20442;-85
2023/09/14 07:48:43;;;;;;;0.40;0.27;;;21.00;99.90;;;;;;5065913;28;20181;-83
2023/09/14 07:51:08;;;;;;;0.40;0.30;;;21.10;99.90;;;;;;5069368;28;20271;-83
2023/09/14 07:53:34;;;;;;;0.40;0.20;;;21.40;99.90;;;;;;5076368;28;20188;-82
2023/09/14 07:55:59;;;;;;;2.20;2.00;;;21.40;99.90;;;;;;5056802;28;20261;-83
2023/09/14 07:58:25;;;;;;;0.50;0.40;;;21.50;99.90;;;;;;5071051;28;20204;-80
2023/09/14 08:00:51;;;;;;;0.40;0.20;;;21.30;99.90;;;;;;5071457;28;20634;-82
2023/09/14 08:03:16;;;;;;;0.40;0.20;;;21.10;99.90;;;;;;5073316;28;20649;-80
2023/09/14 08:05:42;;;;;;;0.40;0.20;;;21.10;99.90;;;;;;5070831;28;20188;-76
2023/09/14 08:08:09;;;;;;;0.40;0.30;;;20.60;99.90;;;;;;5074943;28;20185;-78
2023/09/14 08:10:35;;;;;;;0.40;0.30;;;20.50;99.90;;;;;;5066170;28;20304;-81
2023/09/14 08:13:00;;;;;;;0.40;0.30;;;20.60;99.90;;;;;;5069953;28;20466;-83
2023/09/14 08:15:27;;;;;;;0.40;0.20;;;20.60;99.90;;;;;;5071551;28;20188;-79
2023/09/14 08:17:52;;;;;;;0.40;0.20;;;20.80;99.90;;;;;;5071922;28;20606;-79
2023/09/14 08:20:18;;;;;;;0.40;0.30;;;21.10;99.90;;;;;;5066502;28;20478;-82
2023/09/14 08:22:44;;;;;;;0.40;0.20;;;21.30;99.90;;;;;;5070231;28;20235;-80
2023/09/14 08:25:10;;;;;;;0.40;0.20;;;21.00;99.90;;;;;;5066870;28;20180;-83
2023/09/14 08:27:39;;;;;;;0.40;0.30;;;21.10;99.90;;;;;;5068450;28;20183;-81
2023/09/14 08:30:07;;;;;;;0.40;0.30;;;21.00;99.90;;;;;;5067512;28;20435;-83
2023/09/14 08:32:33;;;;;;;0.40;0.20;;;21.00;99.90;;;;;;5066960;28;20438;-79
2023/09/14 08:35:18;;;;;;;0.40;0.30;;;21.00;99.90;;;;;;5065861;28;20441;-81
2023/09/14 08:37:43;;;;;;;0.40;0.20;;;21.30;99.90;;;;;;5067612;28;20172;-82
2023/09/14 08:40:13;;;;;;;0.40;0.20;;;21.80;99.90;;;;;;5077119;28;20482;-84
2023/09/14 08:42:40;;;;;;;0.40;0.30;;;22.10;99.90;;;;;;5072908;28;20191;-79
2023/09/14 08:45:10;;;;;;;0.40;0.30;;;22.40;99.90;;;;;;5070748;28;20466;-79
2023/09/14 08:47:37;;;;;;;0.40;0.20;;;22.80;99.90;;;;;;5083743;28;20446;-84
2023/09/14 08:50:04;;;;;;;0.40;0.20;;;22.80;99.90;;;;;;5064482;28;20443;-82
2023/09/14 08:52:31;;;;;;;0.40;0.20;;;22.40;99.90;;;;;;5069437;28;20513;-77
2023/09/14 08:54:57;;;;;;;0.40;0.30;;;22.80;99.90;;;;;;5058016;28;20455;-83
2023/09/14 08:57:24;;;;;;;0.40;0.30;;;23.20;99.90;;;;;;5068593;28;21113;-78
2023/09/14 08:59:51;;;;;;;0.40;0.23;;;23.90;99.90;;;;;;5063563;28;20462;-80
2023/09/14 09:02:19;;;;;;;0.40;0.30;;;23.80;99.90;;;;;;5080455;28;20474;-83
2023/09/14 09:04:44;;;;;;;0.40;0.30;;;23.50;99.90;;;;;;5064457;28;20458;-80
2023/09/14 09:07:10;;;;;;;0.40;0.30;;;23.40;99.90;;;;;;5066985;28;20868;-82
2023/09/14 09:09:36;;;;;;;0.40;0.30;;;23.60;99.90;;;;;;5065180;28;20188;-83
2023/09/14 09:12:02;;;;;;;0.40;0.30;;;23.70;99.90;;;;;;5066863;28;20203;-79
2023/09/14 09:14:31;;;;;;;0.40;0.30;;;23.70;99.90;;;;;;5071918;28;20443;-79
2023/09/14 09:16:57;;;;;;;0.40;0.20;;;23.40;99.90;;;;;;5067248;28;20906;-84
2023/09/14 09:19:23;;;;;;;0.40;0.20;;;23.40;99.90;;;;;;5066410;28;20454;-79
2023/09/14 09:21:50;;;;;;;0.40;0.40;;;23.30;99.90;;;;;;5065526;28;20464;-81
2023/09/14 09:24:26;;;;;;;0.40;0.30;;;23.60;99.90;;;;;;5078777;28;20209;-77
2023/09/14 09:26:51;;;;;;;0.40;0.30;;;23.40;99.90;;;;;;5077222;28;20474;-82
2023/09/14 09:29:19;;;;;;;0.40;0.20;;;23.50;99.90;;;;;;5069966;28;20527;-83
2023/09/14 09:31:46;;;;;;;0.40;0.20;;;23.90;99.90;;;;;;5067381;28;20271;-86
2023/09/14 09:34:13;;;;;;;0.40;0.30;;;23.90;99.90;;;;;;5060958;28;20439;-85
2023/09/14 09:36:39;;;;;;;0.40;0.30;;;24.00;99.90;;;;;;5068462;28;20538;-83
2023/09/14 09:39:06;;;;;;;0.40;0.30;;;23.70;99.90;;;;;;5065071;28;20589;-85
2023/09/14 09:41:35;;;;;;;0.40;0.30;;;23.40;99.90;;;;;;5077779;28;20463;-83
2023/09/14 09:44:09;;;;;;;0.40;0.20;;;24.00;99.90;;;;;;5073128;28;20983;-79
2023/09/14 09:46:35;;;;;;;0.40;0.30;;;24.30;99.90;;;;;;5078933;28;20527;-83
2023/09/14 09:49:17;;;;;;;0.40;0.30;;;24.40;99.90;;;;;;5071149;28;20442;-84
2023/09/14 09:51:44;;;;;;;0.40;0.30;;;24.50;99.90;;;;;;5064886;28;20464;-82
2023/09/14 09:54:10;;;;;;;0.40;0.30;;;25.00;99.90;;;;;;5082821;28;21080;-84
2023/09/14 09:56:36;;;;;;;0.40;0.30;;;25.50;99.90;;;;;;5062068;28;20455;-79
2023/09/14 09:59:09;;;;;;;0.40;0.30;;;26.00;99.90;;;;;;5066561;28;20191;-81
2023/09/14 10:01:39;;;;;;;0.40;0.30;;;25.80;99.90;;;;;;5070225;28;20471;-83
2023/09/14 10:04:12;;;;;;;2.87;0.90;;;25.30;99.90;;;;;;5064571;28;20475;-83
2023/09/14 10:06:38;;;;;;;1.63;1.37;;;25.60;99.90;;;;;;5064641;28;20429;-82
2023/09/14 10:09:16;;;;;;;0.40;0.30;;;25.40;99.90;;;;;;5071599;28;20443;-79
2023/09/14 10:11:43;;;;;;;0.40;0.30;;;25.50;99.90;;;;;;5067655;28;20459;-79
2023/09/14 10:14:14;;;;;;;0.40;0.30;;;25.90;99.90;;;;;;5064447;28;20440;-80
2023/09/14 10:16:42;;;;;;;0.40;0.30;;;26.30;99.90;;;;;;5065967;28;20448;-82
2023/09/14 10:19:08;;;;;;;0.40;0.30;;;26.40;99.90;;;;;;5064897;28;20444;-84
2023/09/14 10:21:35;;;;;;;0.50;0.40;;;26.30;99.90;;;;;;5063533;28;20932;-82
2023/09/14 10:24:05;;;;;;;0.40;0.30;;;26.10;99.90;;;;;;5069357;28;20502;-80
2023/09/14 10:26:34;;;;;;;0.40;0.30;;;25.90;99.90;;;;;;5068568;28;20453;-84
2023/09/14 10:29:00;;;;;;;0.40;0.30;;;25.30;99.90;;;;;;5063505;28;20446;-83
2023/09/14 10:31:29;;;;;;;0.40;0.30;;;25.10;99.90;;;;;;5064296;28;20563;-79
2023/09/14 10:33:59;;;;;;;2.60;0.60;;;23.60;99.90;;;;;;5060181;28;20633;-82
2023/09/14 10:36:28;;;;;;;0.40;0.30;;;22.70;99.90;;;;;;5063780;28;20442;-85
2023/09/14 10:38:54;;;;;;;0.40;0.30;;;23.00;99.90;;;;;;5062399;28;20478;-82
2023/09/14 10:41:22;;;;;;;0.40;0.30;;;23.80;99.90;;;;;;5069881;28;20474;-80
2023/09/14 10:43:47;;;;;;;0.40;0.30;;;24.40;99.90;;;;;;5067217;28;20436;-76
2023/09/14 10:46:17;;;;;;;0.40;0.30;;;24.40;99.90;;;;;;5076330;28;20819;-83
2023/09/14 10:48:44;;;;;;;0.70;0.60;;;24.20;99.90;;;;;;5072976;28;20192;-77
2023/09/14 10:51:11;;;;;;;0.40;0.20;;;24.10;99.90;;;;;;5063859;28;20493;-80
2023/09/14 10:53:40;;;;;;;0.40;0.30;;;24.10;99.90;;;;;;5075236;28;20545;-81
2023/09/14 10:56:18;;;;;;;0.50;0.30;;;24.20;99.90;;;;;;5069229;28;20450;-84
2023/09/14 10:58:43;;;;;;;0.40;0.30;;;24.30;99.90;;;;;;5062844;28;20925;-84
2023/09/14 11:01:11;;;;;;;0.70;0.40;;;24.00;99.90;;;;;;5060838;28;20458;-82
2023/09/14 11:04:05;;;;;;;0.40;0.20;;;23.90;99.90;;;;;;5065043;28;20209;-79
2023/09/14 11:06:44;;;;;;;0.40;0.30;;;23.80;99.90;;;;;;5069876;28;20443;-82
2023/09/14 11:09:13;;;;;;;0.40;0.30;;;23.70;99.90;;;;;;5052226;28;20543;-81
2023/09/14 11:11:43;;;;;;;0.40;0.30;;;23.50;99.90;;;;;;5062599;28;20466;-82
2023/09/14 11:14:13;;;;;;;0.40;0.30;;;23.10;99.90;;;;;;5068038;28;20501;-83
2023/09/14 11:16:46;;;;;;;0.40;0.20;;;23.00;99.90;;;;;;5063576;28;20435;-84
2023/09/14 11:19:32;;;;;;;0.40;0.30;;;23.20;99.90;;;;;;5059434;28;20975;-85
2023/09/14 11:22:03;;;;;;;0.40;0.27;;;23.50;99.90;;;;;;5062741;28;20454;-80
2023/09/14 11:24:36;;;;;;;0.40;0.30;;;23.50;99.90;;;;;;5054832;28;20550;-83
2023/09/14 11:27:02;;;;;;;0.40;0.30;;;23.10;99.90;;;;;;5057223;28;20633;-83
2023/09/14 11:29:30;;;;;;;0.40;0.20;;;23.30;99.90;;;;;;5073354;28;20504;-83
2023/09/14 11:32:06;;;;;;;0.40;0.30;;;23.50;99.90;;;;;;5061612;28;20454;-84
2023/09/14 11:34:32;;;;;;;0.40;0.30;;;23.70;99.90;;;;;;5059165;28;21190;-78
2023/09/14 11:36:59;;;;;;;0.40;0.30;;;23.80;99.90;;;;;;5067219;28;20442;-82
2023/09/14 11:39:25;;;;;;;0.40;0.30;;;23.70;99.90;;;;;;5063090;28;20478;-86
2023/09/14 11:41:52;;;;;;;0.40;0.30;;;23.60;99.90;;;;;;5066081;28;20459;-78
2023/09/14 11:44:18;;;;;;;0.40;0.20;;;23.40;99.90;;;;;;5069289;28;20466;-82
2023/09/14 11:46:47;;;;;;;0.40;0.20;;;23.40;99.90;;;;;;5071688;28;20444;-79
2023/09/14 11:49:14;;;;;;;0.40;0.30;;;22.90;99.90;;;;;;5071293;28;20483;-86
2023/09/14 11:51:39;;;;;;;0.40;0.30;;;22.60;99.90;;;;;;5079433;28;20557;-79
2023/09/14 11:54:09;;;;;;;0.40;0.30;;;23.00;99.90;;;;;;5062680;28;20506;-81
2023/09/14 11:56:35;;;;;;;0.50;0.40;;;23.60;99.90;;;;;;5064763;28;20185;-82
2023/09/14 11:59:02;;;;;;;0.40;0.20;;;23.20;99.90;;;;;;5073474;28;20443;-77
2023/09/14 12:01:29;;;;;;;0.40;0.30;;;23.50;99.90;;;;;;5076103;28;20466;-81
2023/09/14 12:03:56;;;;;;;0.40;0.30;;;23.90;99.90;;;;;;5071181;28;20478;-85
2023/09/14 12:06:23;;;;;;;0.40;0.30;;;24.30;99.90;;;;;;5071928;28;20519;-79
2023/09/14 12:08:49;;;;;;;0.40;0.30;;;24.70;99.90;;;;;;5081724;28;20451;-83
2023/09/14 12:11:15;;;;;;;0.40;0.30;;;24.80;99.90;;;;;;5073060;28;20469;-78
2023/09/14 12:13:52;;;;;;;0.40;0.30;;;24.60;99.90;;;;;;5063957;28;20220;-80
2023/09/14 12:16:25;;;;;;;0.40;0.30;;;24.40;99.90;;;;;;5069642;28;20444;-81
2023/09/14 12:18:52;;;;;;;0.40;0.30;;;24.20;99.90;;;;;;5064826;28;21418;-83
2023/09/14 12:21:19;;;;;;;0.40;0.20;;;24.10;99.90;;;;;;5060613;28;20462;-77
2023/09/14 12:23:48;;;;;;;0.40;0.30;;;23.90;99.90;;;;;;5067929;28;20459;-79
2023/09/14 12:26:16;;;;;;;0.40;0.30;;;23.70;99.90;;;;;;5079040;28;20447;-82
2023/09/14 12:28:55;;;;;;;0.40;0.30;;;23.40;99.90;;;;;;5066176;28;20478;-81
2023/09/14 12:31:23;;;;;;;0.40;0.30;;;23.30;99.90;;;;;;5068112;28;20458;-83
2023/09/14 12:33:49;;;;;;;0.40;0.30;;;23.30;99.90;;;;;;5063518;28;20498;-81
2023/09/14 12:36:18;;;;;;;0.40;0.30;;;23.40;99.90;;;;;;5065401;28;20545;-84
2023/09/14 12:38:46;;;;;;;0.40;0.30;;;23.50;99.90;;;;;;5062515;28;20220;-79
2023/09/14 12:41:12;;;;;;;0.40;0.30;;;;;;;;;;5057266;28;20540;-82
2023/09/14 12:43:38;;;;;;;0.40;0.27;;;24.70;99.90;;;;;;5064651;28;20561;-82
2023/09/14 12:46:04;;;;;;;0.40;0.30;;;24.70;99.90;;;;;;5060837;28;20442;-76
2023/09/14 12:48:30;;;;;;;0.40;0.30;;;24.90;99.90;;;;;;5060658;28;20444;-79